sensor_id;sensor_type;location;lat;lon;timestamp;pressure;altitude;pressure_sealevel;temperature;humidity
10261;BME280;5175;42.606;23.388;2023-05-25T00:01:36;93722.66;;;14.27;100.00
10261;BME280;5175;42.606;23.388;2023-05-25T00:04:03;93703.06;;;14.40;100.00
10261;BME280;5175;42.606;23.388;2023-05-25T00:06:30;93699.19;;;14.33;100.00
10261;BME280;5175;42.606;23.388;2023-05-25T00:08:56;93713.91;;;14.35;100.00
10261;BME280;5175;42.606;23.388;2023-05-25T00:11:23;93612.56;;;13.47;100.00
10261;BME280;5175;42.606;23.388;2023-05-25T00:13:52;93604.03;;;13.45;100.00
10261;BME280;5175;42.606;23.388;2023-05-25T00:16:19;93715.50;;;14.23;100.00
10261;BME280;5175;42.606;23.388;2023-05-25T00:18:46;93731.28;;;14.38;100.00
10261;BME280;5175;42.606;23.388;2023-05-25T00:21:13;93730.81;;;14.36;100.00
10261;BME280;5175;42.606;23.388;2023-05-25T00:23:40;93742.44;;;14.31;100.00
10261;BME280;5175;42.606;23.388;2023-05-25T00:26:10;93737.47;;;14.25;100.00
10261;BME280;5175;42.606;23.388;2023-05-25T00:28:36;93745.00;;;14.23;100.00
10261;BME280;5175;42.606;23.388;2023-05-25T00:31:05;93741.56;;;14.22;100.00
10261;BME280;5175;42.606;23.388;2023-05-25T00:33:31;93746.63;;;14.24;100.00
10261;BME280;5175;42.606;23.388;2023-05-25T00:35:58;93744.91;;;14.28;100.00
10261;BME280;5175;42.606;23.388;2023-05-25T00:38:25;93741.47;;;14.00;100.00
10261;BME280;5175;42.606;23.388;2023-05-25T00:40:54;93743.19;;;13.96;100.00
10261;BME280;5175;42.606;23.388;2023-05-25T00:43:21;93749.34;;;13.83;100.00
10261;BME280;5175;42.606;23.388;2023-05-25T00:45:48;93746.16;;;13.67;100.00
10261;BME280;5175;42.606;23.388;2023-05-25T00:48:17;93744.28;;;13.68;100.00
10261;BME280;5175;42.606;23.388;2023-05-25T00:50:44;93751.44;;;13.72;100.00
10261;BME280;5175;42.606;23.388;2023-05-25T00:53:12;93734.56;;;13.58;100.00
10261;BME280;5175;42.606;23.388;2023-05-25T00:55:44;93746.66;;;13.56;100.00
10261;BME280;5175;42.606;23.388;2023-05-25T00:58:12;93741.28;;;13.56;100.00
10261;BME280;5175;42.606;23.388;2023-05-25T01:00:44;93749.25;;;13.61;100.00
10261;BME280;5175;42.606;23.388;2023-05-25T01:03:14;93746.66;;;13.56;100.00
10261;BME280;5175;42.606;23.388;2023-05-25T01:05:49;93733.63;;;13.36;100.00
10261;BME280;5175;42.606;23.388;2023-05-25T01:08:19;93750.81;;;13.02;99.86
10261;BME280;5175;42.606;23.388;2023-05-25T01:10:47;93748.06;;;13.07;98.96
10261;BME280;5175;42.606;23.388;2023-05-25T01:13:16;93734.97;;;13.06;100.00
10261;BME280;5175;42.606;23.388;2023-05-25T01:15:44;93746.72;;;13.24;100.00
10261;BME280;5175;42.606;23.388;2023-05-25T01:18:13;93749.63;;;13.27;100.00
10261;BME280;5175;42.606;23.388;2023-05-25T01:20:51;93756.84;;;13.27;100.00
10261;BME280;5175;42.606;23.388;2023-05-25T01:23:21;93748.72;;;13.32;100.00
10261;BME280;5175;42.606;23.388;2023-05-25T01:25:55;93747.66;;;13.33;100.00
10261;BME280;5175;42.606;23.388;2023-05-25T01:28:27;93744.44;;;13.31;100.00
10261;BME280;5175;42.606;23.388;2023-05-25T01:30:55;93746.00;;;13.18;100.00
10261;BME280;5175;42.606;23.388;2023-05-25T01:33:23;93747.41;;;13.15;100.00
10261;BME280;5175;42.606;23.388;2023-05-25T01:35:52;93731.47;;;13.05;100.00
10261;BME280;5175;42.606;23.388;2023-05-25T01:38:18;93739.75;;;13.23;100.00
10261;BME280;5175;42.606;23.388;2023-05-25T01:40:45;93735.78;;;13.20;100.00
10261;BME280;5175;42.606;23.388;2023-05-25T01:43:12;93737.09;;;13.23;100.00
10261;BME280;5175;42.606;23.388;2023-05-25T01:45:39;93740.56;;;13.23;100.00
10261;BME280;5175;42.606;23.388;2023-05-25T01:48:12;93710.84;;;13.06;100.00
10261;BME280;5175;42.606;23.388;2023-05-25T01:50:47;93727.94;;;13.10;100.00
10261;BME280;5175;42.606;23.388;2023-05-25T01:53:21;93723.19;;;13.07;100.00
10261;BME280;5175;42.606;23.388;2023-05-25T01:55:54;93725.16;;;13.15;100.00
10261;BME280;5175;42.606;23.388;2023-05-25T01:58:22;93730.75;;;13.18;100.00
10261;BME280;5175;42.606;23.388;2023-05-25T02:00:50;93726.78;;;13.16;100.00
10261;BME280;5175;42.606;23.388;2023-05-25T02:03:18;93722.31;;;13.11;100.00
10261;BME280;5175;42.606;23.388;2023-05-25T02:05:46;93733.16;;;13.01;100.00
10261;BME280;5175;42.606;23.388;2023-05-25T02:08:12;93726.69;;;13.02;100.00
10261;BME280;5175;42.606;23.388;2023-05-25T02:10:40;93733.84;;;12.93;100.00
10261;BME280;5175;42.606;23.388;2023-05-25T02:13:07;93736.22;;;12.95;100.00
10261;BME280;5175;42.606;23.388;2023-05-25T02:15:34;93733.09;;;13.06;100.00
10261;BME280;5175;42.606;23.388;2023-05-25T02:18:01;93733.78;;;12.80;100.00
10261;BME280;5175;42.606;23.388;2023-05-25T02:20:30;93734.00;;;12.83;100.00
10261;BME280;5175;42.606;23.388;2023-05-25T02:22:56;93736.38;;;12.85;100.00
10261;BME280;5175;42.606;23.388;2023-05-25T02:25:23;93732.66;;;12.48;100.00
10261;BME280;5175;42.606;23.388;2023-05-25T02:27:51;93741.06;;;12.23;99.51
10261;BME280;5175;42.606;23.388;2023-05-25T02:30:18;93741.94;;;12.19;99.51
10261;BME280;5175;42.606;23.388;2023-05-25T02:32:45;93738.44;;;11.81;95.18
10261;BME280;5175;42.606;23.388;2023-05-25T02:35:12;93718.38;;;11.83;97.40
10261;BME280;5175;42.606;23.388;2023-05-25T02:37:38;93751.34;;;12.16;100.00
10261;BME280;5175;42.606;23.388;2023-05-25T02:40:07;93750.31;;;12.31;100.00
10261;BME280;5175;42.606;23.388;2023-05-25T02:42:35;93761.91;;;12.45;100.00
10261;BME280;5175;42.606;23.388;2023-05-25T02:45:03;93766.88;;;12.33;100.00
10261;BME280;5175;42.606;23.388;2023-05-25T02:47:31;93765.09;;;12.47;100.00
10261;BME280;5175;42.606;23.388;2023-05-25T02:49:57;93766.81;;;12.38;100.00
10261;BME280;5175;42.606;23.388;2023-05-25T02:52:24;93777.91;;;12.50;100.00
10261;BME280;5175;42.606;23.388;2023-05-25T02:54:51;93772.53;;;12.31;100.00
10261;BME280;5175;42.606;23.388;2023-05-25T02:57:18;93776.28;;;12.30;100.00
10261;BME280;5175;42.606;23.388;2023-05-25T02:59:44;93776.94;;;12.41;100.00
10261;BME280;5175;42.606;23.388;2023-05-25T03:02:13;93784.88;;;12.46;100.00
10261;BME280;5175;42.606;23.388;2023-05-25T03:04:43;93782.28;;;12.41;100.00
10261;BME280;5175;42.606;23.388;2023-05-25T03:07:10;93784.53;;;12.34;100.00
10261;BME280;5175;42.606;23.388;2023-05-25T03:09:37;93786.78;;;12.27;100.00
10261;BME280;5175;42.606;23.388;2023-05-25T03:12:04;93791.03;;;12.28;100.00
10261;BME280;5175;42.606;23.388;2023-05-25T03:14:30;93785.69;;;12.28;100.00
10261;BME280;5175;42.606;23.388;2023-05-25T03:16:57;93795.41;;;12.42;100.00
10261;BME280;5175;42.606;23.388;2023-05-25T03:19:25;93806.03;;;12.47;100.00
10261;BME280;5175;42.606;23.388;2023-05-25T03:21:52;93791.34;;;12.45;100.00
10261;BME280;5175;42.606;23.388;2023-05-25T03:24:19;93788.59;;;12.31;100.00
10261;BME280;5175;42.606;23.388;2023-05-25T03:26:46;93790.47;;;12.31;100.00
10261;BME280;5175;42.606;23.388;2023-05-25T03:29:12;93792.97;;;12.22;100.00
10261;BME280;5175;42.606;23.388;2023-05-25T03:31:39;93790.16;;;12.14;100.00
10261;BME280;5175;42.606;23.388;2023-05-25T03:34:06;93791.41;;;12.21;100.00
10261;BME280;5175;42.606;23.388;2023-05-25T03:36:34;93795.03;;;11.88;95.91
10261;BME280;5175;42.606;23.388;2023-05-25T03:39:01;93785.94;;;12.08;96.88
10261;BME280;5175;42.606;23.388;2023-05-25T03:41:28;93790.75;;;11.87;100.00
10261;BME280;5175;42.606;23.388;2023-05-25T03:43:55;93791.28;;;12.08;100.00
10261;BME280;5175;42.606;23.388;2023-05-25T03:46:22;93797.31;;;12.18;100.00
10261;BME280;5175;42.606;23.388;2023-05-25T03:48:49;93795.75;;;12.36;100.00
10261;BME280;5175;42.606;23.388;2023-05-25T03:51:15;93795.44;;;12.56;100.00
10261;BME280;5175;42.606;23.388;2023-05-25T03:53:43;93796.41;;;12.65;100.00
10261;BME280;5175;42.606;23.388;2023-05-25T03:56:10;93803.25;;;12.71;100.00
10261;BME280;5175;42.606;23.388;2023-05-25T03:58:37;93794.78;;;12.83;100.00
10261;BME280;5175;42.606;23.388;2023-05-25T04:01:04;93797.38;;;12.88;100.00
10261;BME280;5175;42.606;23.388;2023-05-25T04:03:30;93806.25;;;13.02;100.00
10261;BME280;5175;42.606;23.388;2023-05-25T04:05:57;93790.34;;;12.92;100.00
10261;BME280;5175;42.606;23.388;2023-05-25T04:08:24;93798.69;;;13.09;100.00
10261;BME280;5175;42.606;23.388;2023-05-25T04:10:54;93804.22;;;13.12;100.00
10261;BME280;5175;42.606;23.388;2023-05-25T04:13:21;93734.13;;;12.60;100.00
10261;BME280;5175;42.606;23.388;2023-05-25T04:15:48;93817.69;;;13.26;100.00
10261;BME280;5175;42.606;23.388;2023-05-25T04:18:15;93818.94;;;13.15;100.00
10261;BME280;5175;42.606;23.388;2023-05-25T04:20:42;93817.28;;;13.19;100.00
10261;BME280;5175;42.606;23.388;2023-05-25T04:23:09;93823.34;;;13.25;100.00
10261;BME280;5175;42.606;23.388;2023-05-25T04:25:35;93821.41;;;13.44;100.00
10261;BME280;5175;42.606;23.388;2023-05-25T04:28:04;93818.94;;;13.47;100.00
10261;BME280;5175;42.606;23.388;2023-05-25T04:30:32;93823.44;;;13.65;100.00
10261;BME280;5175;42.606;23.388;2023-05-25T04:33:00;93825.94;;;13.75;100.00
10261;BME280;5175;42.606;23.388;2023-05-25T04:35:27;93826.41;;;14.05;100.00
10261;BME280;5175;42.606;23.388;2023-05-25T04:37:55;93837.69;;;14.34;100.00
10261;BME280;5175;42.606;23.388;2023-05-25T04:40:25;93838.47;;;14.34;100.00
10261;BME280;5175;42.606;23.388;2023-05-25T04:42:52;93825.66;;;14.45;100.00
10261;BME280;5175;42.606;23.388;2023-05-25T04:45:21;93838.66;;;14.38;100.00
10261;BME280;5175;42.606;23.388;2023-05-25T04:47:48;93837.19;;;14.46;100.00
10261;BME280;5175;42.606;23.388;2023-05-25T04:50:15;93832.44;;;14.78;100.00
10261;BME280;5175;42.606;23.388;2023-05-25T04:52:42;93839.34;;;15.15;100.00
10261;BME280;5175;42.606;23.388;2023-05-25T04:55:09;93833.56;;;15.44;100.00
10261;BME280;5175;42.606;23.388;2023-05-25T04:57:36;93839.84;;;15.61;100.00
10261;BME280;5175;42.606;23.388;2023-05-25T05:00:04;93842.06;;;15.59;100.00
10261;BME280;5175;42.606;23.388;2023-05-25T05:02:35;93838.59;;;15.90;100.00
10261;BME280;5175;42.606;23.388;2023-05-25T05:05:02;93834.06;;;15.68;100.00
10261;BME280;5175;42.606;23.388;2023-05-25T05:07:28;93828.47;;;15.56;100.00
10261;BME280;5175;42.606;23.388;2023-05-25T05:09:56;93825.06;;;15.73;100.00
10261;BME280;5175;42.606;23.388;2023-05-25T05:12:22;93829.47;;;15.69;100.00
10261;BME280;5175;42.606;23.388;2023-05-25T05:14:49;93822.63;;;15.62;100.00
10261;BME280;5175;42.606;23.388;2023-05-25T05:17:16;93820.66;;;15.77;100.00
10261;BME280;5175;42.606;23.388;2023-05-25T05:19:44;93822.44;;;15.90;100.00
10261;BME280;5175;42.606;23.388;2023-05-25T05:22:11;93818.47;;;15.87;100.00
10261;BME280;5175;42.606;23.388;2023-05-25T05:24:40;93823.75;;;16.01;100.00
10261;BME280;5175;42.606;23.388;2023-05-25T05:27:11;93819.47;;;16.00;100.00
10261;BME280;5175;42.606;23.388;2023-05-25T05:29:38;93838.63;;;16.46;100.00
10261;BME280;5175;42.606;23.388;2023-05-25T05:32:05;93853.06;;;16.50;100.00
10261;BME280;5175;42.606;23.388;2023-05-25T05:34:33;93845.91;;;17.02;100.00
10261;BME280;5175;42.606;23.388;2023-05-25T05:37:01;93853.84;;;17.33;100.00
10261;BME280;5175;42.606;23.388;2023-05-25T05:39:28;93862.38;;;17.52;100.00
10261;BME280;5175;42.606;23.388;2023-05-25T05:41:55;93838.41;;;17.68;100.00
10261;BME280;5175;42.606;23.388;2023-05-25T05:44:22;93870.75;;;17.93;100.00
10261;BME280;5175;42.606;23.388;2023-05-25T05:46:49;93863.44;;;18.02;100.00
10261;BME280;5175;42.606;23.388;2023-05-25T05:49:16;93871.91;;;18.30;100.00
10261;BME280;5175;42.606;23.388;2023-05-25T05:51:43;93870.19;;;18.26;100.00
10261;BME280;5175;42.606;23.388;2023-05-25T05:54:11;93865.16;;;18.07;100.00
10261;BME280;5175;42.606;23.388;2023-05-25T05:56:38;93876.94;;;18.02;100.00
10261;BME280;5175;42.606;23.388;2023-05-25T05:59:04;93879.75;;;18.14;100.00
10261;BME280;5175;42.606;23.388;2023-05-25T06:01:31;93881.13;;;18.29;100.00
10261;BME280;5175;42.606;23.388;2023-05-25T06:03:58;93877.88;;;18.44;100.00
10261;BME280;5175;42.606;23.388;2023-05-25T06:06:25;93870.66;;;18.65;100.00
10261;BME280;5175;42.606;23.388;2023-05-25T06:08:52;93873.56;;;18.90;100.00
10261;BME280;5175;42.606;23.388;2023-05-25T06:11:20;93887.00;;;18.98;100.00
10261;BME280;5175;42.606;23.388;2023-05-25T06:13:47;93873.28;;;19.03;100.00
10261;BME280;5175;42.606;23.388;2023-05-25T06:16:13;93878.00;;;19.15;100.00
10261;BME280;5175;42.606;23.388;2023-05-25T06:18:40;93866.44;;;19.26;100.00
10261;BME280;5175;42.606;23.388;2023-05-25T06:21:07;93870.97;;;19.43;100.00
10261;BME280;5175;42.606;23.388;2023-05-25T06:23:34;93888.84;;;19.56;100.00
10261;BME280;5175;42.606;23.388;2023-05-25T06:26:04;93881.00;;;19.63;100.00
10261;BME280;5175;42.606;23.388;2023-05-25T06:28:32;93876.97;;;19.69;100.00
10261;BME280;5175;42.606;23.388;2023-05-25T06:30:59;93873.25;;;19.74;100.00
10261;BME280;5175;42.606;23.388;2023-05-25T06:33:26;93882.59;;;19.97;100.00
10261;BME280;5175;42.606;23.388;2023-05-25T06:35:53;93880.03;;;20.13;100.00
10261;BME280;5175;42.606;23.388;2023-05-25T06:38:24;93885.56;;;20.16;100.00
10261;BME280;5175;42.606;23.388;2023-05-25T06:40:51;93885.28;;;20.30;100.00
10261;BME280;5175;42.606;23.388;2023-05-25T06:43:18;93892.09;;;20.36;100.00
10261;BME280;5175;42.606;23.388;2023-05-25T06:45:46;93892.66;;;20.41;100.00
10261;BME280;5175;42.606;23.388;2023-05-25T06:48:13;93892.97;;;20.52;100.00
10261;BME280;5175;42.606;23.388;2023-05-25T06:50:40;93896.41;;;20.49;100.00
10261;BME280;5175;42.606;23.388;2023-05-25T06:53:07;93900.00;;;20.65;100.00
10261;BME280;5175;42.606;23.388;2023-05-25T06:55:35;93898.31;;;20.60;87.07
10261;BME280;5175;42.606;23.388;2023-05-25T06:58:02;93891.66;;;20.82;87.60
10261;BME280;5175;42.606;23.388;2023-05-25T07:00:28;93893.59;;;21.06;92.55
10261;BME280;5175;42.606;23.388;2023-05-25T07:02:56;93886.94;;;21.15;91.97
10261;BME280;5175;42.606;23.388;2023-05-25T07:05:23;93894.94;;;21.24;91.50
10261;BME280;5175;42.606;23.388;2023-05-25T07:07:50;93878.22;;;21.10;88.72
10261;BME280;5175;42.606;23.388;2023-05-25T07:10:17;93889.13;;;21.38;87.76
10261;BME280;5175;42.606;23.388;2023-05-25T07:12:43;93889.50;;;21.36;86.62
10261;BME280;5175;42.606;23.388;2023-05-25T07:15:10;93888.53;;;21.44;85.61
10261;BME280;5175;42.606;23.388;2023-05-25T07:17:38;93881.88;;;21.54;83.07
10261;BME280;5175;42.606;23.388;2023-05-25T07:20:07;93884.81;;;21.49;85.69
10261;BME280;5175;42.606;23.388;2023-05-25T07:22:35;93892.31;;;21.67;84.19
10261;BME280;5175;42.606;23.388;2023-05-25T07:25:03;93893.13;;;21.68;83.54
10261;BME280;5175;42.606;23.388;2023-05-25T07:27:31;93892.63;;;21.78;82.12
10261;BME280;5175;42.606;23.388;2023-05-25T07:29:58;93891.84;;;21.90;81.74
10261;BME280;5175;42.606;23.388;2023-05-25T07:32:24;93889.81;;;21.87;79.91
10261;BME280;5175;42.606;23.388;2023-05-25T07:34:51;93899.78;;;22.10;78.62
10261;BME280;5175;42.606;23.388;2023-05-25T07:37:19;93900.50;;;22.23;79.23
10261;BME280;5175;42.606;23.388;2023-05-25T07:39:46;93908.81;;;22.14;78.59
10261;BME280;5175;42.606;23.388;2023-05-25T07:42:13;93899.41;;;21.84;79.84
10261;BME280;5175;42.606;23.388;2023-05-25T07:44:45;93906.75;;;21.83;80.68
10261;BME280;5175;42.606;23.388;2023-05-25T07:47:11;93913.84;;;21.60;79.13
10261;BME280;5175;42.606;23.388;2023-05-25T07:49:38;93906.09;;;21.47;80.71
10261;BME280;5175;42.606;23.388;2023-05-25T07:52:05;93910.66;;;21.06;82.19
10261;BME280;5175;42.606;23.388;2023-05-25T07:54:33;93912.69;;;20.97;83.35
10261;BME280;5175;42.606;23.388;2023-05-25T07:57:04;93914.63;;;20.85;85.60
10261;BME280;5175;42.606;23.388;2023-05-25T07:59:32;93914.78;;;20.43;86.41
10261;BME280;5175;42.606;23.388;2023-05-25T08:01:58;93912.25;;;20.26;88.18
10261;BME280;5175;42.606;23.388;2023-05-25T08:04:25;93906.25;;;20.21;89.10
10261;BME280;5175;42.606;23.388;2023-05-25T08:06:52;93913.41;;;20.05;92.06
10261;BME280;5175;42.606;23.388;2023-05-25T08:09:19;93917.59;;;20.02;92.67
10261;BME280;5175;42.606;23.388;2023-05-25T08:11:47;93915.72;;;19.82;92.55
10261;BME280;5175;42.606;23.388;2023-05-25T08:14:15;93907.25;;;19.63;94.20
10261;BME280;5175;42.606;23.388;2023-05-25T08:16:41;93921.25;;;19.65;94.53
10261;BME280;5175;42.606;23.388;2023-05-25T08:19:08;93929.94;;;19.29;95.70
10261;BME280;5175;42.606;23.388;2023-05-25T08:21:35;93924.38;;;19.05;97.65
10261;BME280;5175;42.606;23.388;2023-05-25T08:24:04;93929.00;;;18.96;98.56
10261;BME280;5175;42.606;23.388;2023-05-25T08:26:32;93930.91;;;18.95;99.36
10261;BME280;5175;42.606;23.388;2023-05-25T08:29:02;93933.78;;;18.99;100.00
10261;BME280;5175;42.606;23.388;2023-05-25T08:31:30;93933.59;;;19.04;99.11
10261;BME280;5175;42.606;23.388;2023-05-25T08:33:57;93939.38;;;18.94;99.42
10261;BME280;5175;42.606;23.388;2023-05-25T08:36:24;93948.00;;;18.87;99.97
10261;BME280;5175;42.606;23.388;2023-05-25T08:38:51;93952.84;;;18.64;100.00
10261;BME280;5175;42.606;23.388;2023-05-25T08:41:18;93958.59;;;18.63;100.00
10261;BME280;5175;42.606;23.388;2023-05-25T08:43:45;93959.56;;;18.58;100.00
10261;BME280;5175;42.606;23.388;2023-05-25T08:46:14;93960.06;;;18.43;100.00
10261;BME280;5175;42.606;23.388;2023-05-25T08:48:48;93958.34;;;18.30;100.00
10261;BME280;5175;42.606;23.388;2023-05-25T08:51:16;93961.25;;;18.08;100.00
10261;BME280;5175;42.606;23.388;2023-05-25T08:53:44;93958.09;;;17.55;100.00
10261;BME280;5175;42.606;23.388;2023-05-25T08:56:17;93962.81;;;17.49;100.00
10261;BME280;5175;42.606;23.388;2023-05-25T08:58:48;93966.97;;;17.38;100.00
10261;BME280;5175;42.606;23.388;2023-05-25T09:01:20;93947.22;;;17.03;100.00
10261;BME280;5175;42.606;23.388;2023-05-25T09:03:48;93967.25;;;17.19;100.00
10261;BME280;5175;42.606;23.388;2023-05-25T09:06:16;93975.97;;;17.25;100.00
10261;BME280;5175;42.606;23.388;2023-05-25T09:08:43;93974.56;;;17.27;100.00
10261;BME280;5175;42.606;23.388;2023-05-25T09:11:11;93970.13;;;17.40;100.00
10261;BME280;5175;42.606;23.388;2023-05-25T09:13:38;93981.88;;;17.35;100.00
10261;BME280;5175;42.606;23.388;2023-05-25T09:16:06;93971.69;;;17.24;100.00
10261;BME280;5175;42.606;23.388;2023-05-25T09:18:34;93957.63;;;16.79;100.00
10261;BME280;5175;42.606;23.388;2023-05-25T09:21:02;93970.03;;;16.88;100.00
10261;BME280;5175;42.606;23.388;2023-05-25T09:23:29;93968.56;;;16.82;100.00
10261;BME280;5175;42.606;23.388;2023-05-25T09:25:56;93962.84;;;16.75;100.00
10261;BME280;5175;42.606;23.388;2023-05-25T09:28:23;93959.25;;;16.88;100.00
10261;BME280;5175;42.606;23.388;2023-05-25T09:30:50;93951.34;;;17.01;100.00
10261;BME280;5175;42.606;23.388;2023-05-25T09:33:17;93953.91;;;17.14;100.00
10261;BME280;5175;42.606;23.388;2023-05-25T09:35:46;93924.72;;;17.16;100.00
10261;BME280;5175;42.606;23.388;2023-05-25T09:38:14;93945.66;;;17.19;100.00
10261;BME280;5175;42.606;23.388;2023-05-25T09:40:41;93945.66;;;17.02;100.00
10261;BME280;5175;42.606;23.388;2023-05-25T09:43:08;93945.63;;;16.94;100.00
10261;BME280;5175;42.606;23.388;2023-05-25T09:45:35;93942.78;;;16.99;100.00
10261;BME280;5175;42.606;23.388;2023-05-25T09:48:05;93948.38;;;17.19;100.00
10261;BME280;5175;42.606;23.388;2023-05-25T09:50:32;93946.97;;;17.30;100.00
10261;BME280;5175;42.606;23.388;2023-05-25T09:53:01;93937.66;;;17.54;100.00
10261;BME280;5175;42.606;23.388;2023-05-25T09:55:29;93934.78;;;17.76;100.00
10261;BME280;5175;42.606;23.388;2023-05-25T09:57:56;93933.81;;;17.97;100.00
10261;BME280;5175;42.606;23.388;2023-05-25T10:00:23;93933.63;;;18.02;100.00
10261;BME280;5175;42.606;23.388;2023-05-25T10:02:50;93926.13;;;18.17;100.00
10261;BME280;5175;42.606;23.388;2023-05-25T10:05:17;93931.31;;;18.47;100.00
10261;BME280;5175;42.606;23.388;2023-05-25T10:07:45;93924.06;;;18.68;100.00
10261;BME280;5175;42.606;23.388;2023-05-25T10:10:13;93922.94;;;18.69;100.00
10261;BME280;5175;42.606;23.388;2023-05-25T10:12:41;93908.78;;;18.72;100.00
10261;BME280;5175;42.606;23.388;2023-05-25T10:15:11;93924.06;;;18.98;100.00
10261;BME280;5175;42.606;23.388;2023-05-25T10:17:42;93923.59;;;19.25;100.00
10261;BME280;5175;42.606;23.388;2023-05-25T10:20:11;93914.19;;;19.31;100.00
10261;BME280;5175;42.606;23.388;2023-05-25T10:22:43;93918.19;;;19.25;100.00
10261;BME280;5175;42.606;23.388;2023-05-25T10:25:19;93914.00;;;19.36;100.00
10261;BME280;5175;42.606;23.388;2023-05-25T10:27:55;93911.75;;;19.38;100.00
10261;BME280;5175;42.606;23.388;2023-05-25T10:30:24;93915.69;;;19.20;100.00
10261;BME280;5175;42.606;23.388;2023-05-25T10:32:52;93920.09;;;19.24;100.00
10261;BME280;5175;42.606;23.388;2023-05-25T10:35:20;93911.56;;;19.43;100.00
10261;BME280;5175;42.606;23.388;2023-05-25T10:37:50;93907.81;;;19.56;100.00
10261;BME280;5175;42.606;23.388;2023-05-25T10:40:20;93901.78;;;19.71;100.00
10261;BME280;5175;42.606;23.388;2023-05-25T10:42:48;93907.91;;;19.80;88.24
10261;BME280;5175;42.606;23.388;2023-05-25T10:45:16;93890.38;;;19.98;100.00
10261;BME280;5175;42.606;23.388;2023-05-25T10:47:44;93892.13;;;20.15;98.79
10261;BME280;5175;42.606;23.388;2023-05-25T10:50:19;93897.72;;;20.43;95.40
10261;BME280;5175;42.606;23.388;2023-05-25T10:52:57;93900.44;;;20.55;88.16
10261;BME280;5175;42.606;23.388;2023-05-25T10:55:26;93895.25;;;20.62;86.16
10261;BME280;5175;42.606;23.388;2023-05-25T10:58:10;93892.09;;;20.48;90.80
10261;BME280;5175;42.606;23.388;2023-05-25T11:00:38;93881.25;;;20.60;89.61
10261;BME280;5175;42.606;23.388;2023-05-25T11:03:05;93873.25;;;20.51;100.00
10261;BME280;5175;42.606;23.388;2023-05-25T11:05:36;93873.34;;;20.55;100.00
10261;BME280;5175;42.606;23.388;2023-05-25T11:08:05;93865.78;;;20.73;100.00
10261;BME280;5175;42.606;23.388;2023-05-25T11:10:50;93870.75;;;20.71;99.35
10261;BME280;5175;42.606;23.388;2023-05-25T11:13:36;93861.16;;;20.73;100.00
10261;BME280;5175;42.606;23.388;2023-05-25T11:16:22;93867.47;;;20.65;100.00
10261;BME280;5175;42.606;23.388;2023-05-25T11:19:01;93864.31;;;20.63;100.00
10261;BME280;5175;42.606;23.388;2023-05-25T11:21:42;93871.22;;;20.85;100.00
10261;BME280;5175;42.606;23.388;2023-05-25T11:24:14;93871.56;;;20.71;100.00
10261;BME280;5175;42.606;23.388;2023-05-25T11:26:57;93870.19;;;20.77;100.00
10261;BME280;5175;42.606;23.388;2023-05-25T11:29:29;93877.09;;;20.87;100.00
10261;BME280;5175;42.606;23.388;2023-05-25T11:31:57;93871.06;;;20.93;98.64
10261;BME280;5175;42.606;23.388;2023-05-25T11:34:25;93864.88;;;20.69;100.00
10261;BME280;5175;42.606;23.388;2023-05-25T11:36:53;93864.53;;;20.70;100.00
10261;BME280;5175;42.606;23.388;2023-05-25T11:39:21;93857.09;;;20.67;100.00
10261;BME280;5175;42.606;23.388;2023-05-25T11:41:51;93863.84;;;20.73;100.00
10261;BME280;5175;42.606;23.388;2023-05-25T11:44:26;93867.72;;;20.72;100.00
10261;BME280;5175;42.606;23.388;2023-05-25T11:46:54;93868.72;;;20.80;100.00
10261;BME280;5175;42.606;23.388;2023-05-25T11:49:25;93867.50;;;20.77;100.00
10261;BME280;5175;42.606;23.388;2023-05-25T11:51:52;93871.31;;;20.88;99.04
10261;BME280;5175;42.606;23.388;2023-05-25T11:54:23;93868.50;;;20.85;100.00
10261;BME280;5175;42.606;23.388;2023-05-25T11:56:51;93867.91;;;20.91;100.00
10261;BME280;5175;42.606;23.388;2023-05-25T11:59:18;93868.16;;;20.74;97.59
10261;BME280;5175;42.606;23.388;2023-05-25T12:01:56;93847.81;;;20.80;98.88
10261;BME280;5175;42.606;23.388;2023-05-25T12:04:23;93875.16;;;20.99;95.26
10261;BME280;5175;42.606;23.388;2023-05-25T12:06:49;93874.72;;;20.97;95.47
10261;BME280;5175;42.606;23.388;2023-05-25T12:09:18;93874.91;;;21.04;94.72
10261;BME280;5175;42.606;23.388;2023-05-25T12:11:46;93877.19;;;21.14;92.68
10261;BME280;5175;42.606;23.388;2023-05-25T12:14:13;93873.72;;;21.42;91.81
10261;BME280;5175;42.606;23.388;2023-05-25T12:16:40;93872.88;;;21.65;93.79
10261;BME280;5175;42.606;23.388;2023-05-25T12:19:10;93872.59;;;22.10;89.89
10261;BME280;5175;42.606;23.388;2023-05-25T12:21:38;93864.28;;;22.34;85.46
10261;BME280;5175;42.606;23.388;2023-05-25T12:24:06;93869.88;;;22.69;83.37
10261;BME280;5175;42.606;23.388;2023-05-25T12:26:33;93857.84;;;22.70;85.66
10261;BME280;5175;42.606;23.388;2023-05-25T12:29:01;93876.34;;;22.96;80.36
10261;BME280;5175;42.606;23.388;2023-05-25T12:31:29;93861.53;;;23.44;80.46
10261;BME280;5175;42.606;23.388;2023-05-25T12:34:04;93866.97;;;22.78;69.46
10261;BME280;5175;42.606;23.388;2023-05-25T12:36:46;93854.97;;;22.04;69.51
10261;BME280;5175;42.606;23.388;2023-05-25T12:39:16;93850.75;;;22.66;72.86
10261;BME280;5175;42.606;23.388;2023-05-25T12:41:47;93852.00;;;22.09;74.92
10261;BME280;5175;42.606;23.388;2023-05-25T12:44:19;93813.78;;;22.02;77.16
10261;BME280;5175;42.606;23.388;2023-05-25T12:46:47;93840.44;;;22.12;68.46
10261;BME280;5175;42.606;23.388;2023-05-25T12:49:38;93847.69;;;21.80;67.52
10261;BME280;5175;42.606;23.388;2023-05-25T12:52:07;93831.66;;;22.03;70.53
10261;BME280;5175;42.606;23.388;2023-05-25T12:54:39;93828.78;;;22.90;69.82
10261;BME280;5175;42.606;23.388;2023-05-25T12:57:09;93813.16;;;23.56;69.90
10261;BME280;5175;42.606;23.388;2023-05-25T12:59:36;93818.16;;;23.54;64.49